.
WxDataArchive / Data Records for 2011-12-08
2011-12-07 December 2011 2011-12-09

Data Records for Thursday, 08 December 2011

Time	Temp	Chill	HIndex	Humid	Dewpt	 Wind 	HiWind	WindDir	Rain 	Barom 
-----	----	-----	------	-----	-----	------	------	-------	-----	----- 
00:00	28.7	28.7	28.7	69	19.8	2	3	270	0.00	30.094 
00:05	28.8	28.8	28.8	70	20.3	1	4	248	0.00	30.094 
00:10	28.8	28.8	28.8	70	20.3	2	4	248	0.00	30.094 
00:15	29.0	29.0	29.0	70	20.5	1	3	270	0.00	30.093 
00:20	29.0	29.0	29.0	70	20.5	2	4	248	0.00	30.093 
00:25	29.1	29.1	29.1	70	20.6	1	3	248	0.00	30.093 
00:30	29.1	29.1	29.1	70	20.6	1	4	292	0.00	30.098 
00:35	29.1	29.1	29.1	70	20.6	1	3	292	0.00	30.098 
00:40	29.1	29.1	29.1	70	20.6	1	3	270	0.00	30.098 
00:45	29.3	29.3	29.3	71	21.1	1	5	248	0.00	30.101 
00:50	29.3	29.3	29.3	71	21.1	1	3	248	0.00	30.101 
00:55	29.3	29.3	29.3	71	21.1	1	3	248	0.00	30.101 
01:00	29.1	29.1	29.1	71	20.9	1	3	248	0.00	30.102 
01:05	29.1	29.1	29.1	72	21.2	1	4	248	0.00	30.102 
01:10	29.0	29.0	29.0	72	21.1	1	4	248	0.00	30.102 
01:15	29.0	29.0	29.0	72	21.1	1	4	248	0.00	30.106 
01:20	29.0	29.0	29.0	73	21.4	1	4	270	0.00	30.106 
01:25	29.0	29.0	29.0	73	21.4	1	4	248	0.00	30.106 
01:30	29.0	29.0	29.0	73	21.4	1	3	248	0.00	30.112 
01:35	29.0	29.0	29.0	73	21.4	1	3	248	0.00	30.112 
01:40	29.0	29.0	29.0	73	21.4	1	2	338	0.00	30.112 
01:45	29.0	29.0	29.0	73	21.4	1	3	225	0.00	30.118 
01:50	29.0	29.0	29.0	74	21.8	1	3	248	0.00	30.118 
01:55	29.0	29.0	29.0	74	21.8	1	3	248	0.00	30.118 
02:00	29.0	29.0	29.0	74	21.8	0	3	248	0.00	30.119 
02:05	28.8	28.8	28.8	74	21.6	1	2	248	0.00	30.119 
02:10	28.7	28.7	28.7	75	21.8	0	2	248	0.00	30.119 
02:15	28.4	28.4	28.4	75	21.5	0	1	248	0.00	30.119 
02:20	28.4	28.4	28.4	76	21.8	1	4	248	0.00	30.119 
02:25	28.2	28.2	28.2	76	21.6	0	2	248	0.00	30.119 
02:30	28.1	28.1	28.1	77	21.8	0	2	248	0.00	30.130 
02:35	27.9	27.9	27.9	77	21.6	0	2	248	0.00	30.130 
02:40	27.8	27.8	27.8	77	21.5	0	2	248	0.00	30.130 
02:45	27.8	27.8	27.8	78	21.8	0	1	248	0.00	30.136 
02:50	27.6	27.6	27.6	78	21.7	0	2	248	0.00	30.136 
02:55	27.5	27.5	27.5	79	21.9	0	2	248	0.00	30.136 
03:00	27.5	27.5	27.5	79	21.9	0	3	248	0.00	30.139 
03:05	27.3	27.3	27.3	79	21.7	0	1	248	0.00	30.139 
03:10	27.2	27.2	27.2	79	21.6	0	1	248	0.00	30.139 
03:15	27.0	27.0	27.0	80	21.7	0	1	248	0.00	30.147 
03:20	27.0	27.0	27.0	80	21.7	0	3	248	0.00	30.147 
03:25	26.9	26.9	26.9	80	21.6	1	2	248	0.00	30.147 
03:30	26.9	26.9	26.9	81	21.9	0	2	248	0.00	30.153 
03:35	26.7	26.7	26.7	81	21.7	0	2	248	0.00	30.153 
03:40	26.7	26.7	26.7	81	21.7	0	2	248	0.00	30.153 
03:45	26.7	26.7	26.7	81	21.7	0	2	248	0.00	30.159 
03:50	26.6	26.6	26.6	82	21.9	1	4	248	0.00	30.159 
03:55	26.6	26.6	26.6	82	21.9	0	3	248	0.00	30.159 
04:00	26.6	26.6	26.6	82	21.9	1	4	248	0.00	30.161 
04:05	26.6	26.6	26.6	82	21.9	0	3	248	0.00	30.161 
04:10	26.6	26.6	26.6	82	21.9	1	3	248	0.00	30.161 
04:15	26.4	26.4	26.4	82	21.7	0	3	248	0.00	30.157 
04:20	26.4	26.4	26.4	82	21.7	0	2	248	0.00	30.157 
04:25	26.3	26.3	26.3	83	21.9	1	4	248	0.00	30.157 
04:30	26.3	26.3	26.3	83	21.9	1	5	248	0.00	30.163 
04:35	26.3	26.3	26.3	83	21.9	0	1	270	0.00	30.163 
04:40	26.3	26.3	26.3	83	21.9	1	2	270	0.00	30.163 
04:45	26.3	26.3	26.3	83	21.9	1	2	248	0.00	30.167 
04:50	26.3	26.3	26.3	84	22.1	1	3	248	0.00	30.167 
04:55	26.3	26.3	26.3	84	22.1	1	3	248	0.00	30.167 
05:00	26.3	26.3	26.3	84	22.1	1	3	248	0.00	30.169 
05:05	26.3	26.3	26.3	84	22.1	1	4	248	0.00	30.169 
05:10	26.3	26.3	26.3	84	22.1	0	2	248	0.00	30.169 
05:15	26.3	26.3	26.3	84	22.1	1	4	248	0.00	30.174 
05:20	26.3	26.3	26.3	84	22.1	0	2	248	0.00	30.174 
05:25	26.4	26.4	26.4	84	22.2	1	3	248	0.00	30.174 
05:30	26.4	26.4	26.4	84	22.2	2	5	248	0.00	30.184 
05:35	26.4	26.4	26.4	84	22.2	1	3	248	0.00	30.184 
05:40	26.4	26.4	26.4	84	22.2	0	3	248	0.00	30.184 
05:45	26.4	26.4	26.4	84	22.2	1	4	248	0.00	30.176 
05:50	26.4	26.4	26.4	84	22.2	1	4	248	0.00	30.176 
05:55	26.3	26.3	26.3	84	22.1	1	3	248	0.00	30.176 
06:00	26.3	26.3	26.3	84	22.1	1	4	248	0.00	30.186 
06:05	26.3	26.3	26.3	84	22.1	1	4	248	0.00	30.186 
06:10	26.1	26.1	26.1	84	21.9	1	3	248	0.00	30.186 
06:15	26.1	26.1	26.1	84	21.9	0	3	248	0.00	30.195 
06:20	26.0	26.0	26.0	84	21.8	1	3	248	0.00	30.195 
06:25	25.8	25.8	25.8	84	21.6	0	1	248	0.00	30.195 
06:30	25.7	25.7	25.7	84	21.5	0	2	248	0.00	30.198 
06:35	25.6	25.6	25.6	84	21.5	0	1	248	0.00	30.198 
06:40	25.4	25.4	25.4	84	21.3	0	1	248	0.00	30.198 
06:45	25.4	25.4	25.4	84	21.3	0	3	248	0.00	30.207 
06:50	25.3	25.3	25.3	84	21.2	0	3	248	0.00	30.207 
06:55	25.3	25.3	25.3	84	21.2	0	3	248	0.00	30.207 
07:00	25.1	25.1	25.1	85	21.2	0	2	248	0.00	30.206 
07:05	25.1	25.1	25.1	85	21.2	0	2	248	0.00	30.206 
07:10	25.0	25.0	25.0	85	21.1	0	0	---	0.00	30.206 
07:15	24.7	24.7	24.7	85	20.8	0	0	---	0.00	30.204 
07:20	24.5	24.5	24.5	85	20.6	0	0	---	0.00	30.204 
07:25	24.4	24.4	24.4	85	20.6	0	0	---	0.00	30.204 
07:30	24.2	24.2	24.2	85	20.4	0	0	---	0.00	30.209 
07:35	24.1	24.1	24.1	85	20.3	0	0	---	0.00	30.209 
07:40	23.8	23.8	23.8	85	20.0	0	0	---	0.00	30.209 
07:45	23.6	23.6	23.6	85	19.8	0	0	---	0.00	30.211 
07:50	23.5	23.5	23.5	86	19.9	0	1	248	0.00	30.211 
07:55	23.5	23.5	23.5	86	19.9	0	0	---	0.00	30.211 
08:00	23.3	23.3	23.3	86	19.7	0	0	---	0.00	30.221 
08:05	23.3	23.3	23.3	86	19.7	0	0	---	0.00	30.221 
08:10	23.3	23.3	23.3	87	20.0	0	0	---	0.00	30.221 
08:15	23.3	23.3	23.3	87	20.0	0	0	---	0.00	30.227 
08:20	23.5	23.5	23.5	87	20.2	0	1	248	0.00	30.227 
08:25	23.6	23.6	23.6	88	20.6	0	2	248	0.00	30.227 
08:30	23.9	23.9	23.9	88	20.9	0	2	248	0.00	30.242 
08:35	24.2	24.2	24.2	88	21.2	0	2	248	0.00	30.242 
08:40	24.4	24.4	24.4	88	21.4	1	3	248	0.00	30.242 
08:45	24.7	24.7	24.7	88	21.7	1	3	270	0.00	30.248 
08:50	24.8	24.8	24.8	88	21.8	1	4	248	0.00	30.248 
08:55	25.0	25.0	25.0	88	22.0	0	2	248	0.00	30.248 
09:00	25.3	25.3	25.3	87	22.0	1	3	248	0.00	30.252 
09:05	25.6	25.6	25.6	87	22.3	1	3	248	0.00	30.252 
09:10	26.1	26.1	26.1	87	22.8	1	5	248	0.00	30.252 
09:15	26.4	26.4	26.4	86	22.8	1	3	248	0.00	30.249 
09:20	26.7	26.7	26.7	85	22.8	1	6	248	0.00	30.249 
09:25	26.9	26.9	26.9	84	22.7	2	5	248	0.00	30.249 
09:30	27.0	27.0	27.0	84	22.8	1	4	248	0.00	30.255 
09:35	27.0	27.0	27.0	84	22.8	1	5	248	0.00	30.255 
09:40	27.2	27.2	27.2	83	22.7	1	3	248	0.00	30.255 
09:45	27.3	27.3	27.3	83	22.8	1	4	248	0.00	30.260 
09:50	27.3	27.3	27.3	82	22.5	1	4	248	0.00	30.260 
09:55	27.5	27.5	27.5	82	22.7	1	5	248	0.00	30.260 
10:00	27.6	27.6	27.6	82	22.8	1	3	225	0.00	30.262 
10:05	27.8	27.8	27.8	81	22.7	1	5	225	0.00	30.262 
10:10	27.8	27.8	27.8	81	22.7	1	3	270	0.00	30.262 
10:15	27.9	27.9	27.9	81	22.8	1	3	270	0.00	30.267 
10:20	28.1	28.1	28.1	81	23.0	1	2	270	0.00	30.267 
10:25	28.2	28.2	28.2	80	22.8	1	3	270	0.00	30.267 
10:30	28.4	28.4	28.4	80	23.0	1	4	248	0.00	30.267 
10:35	28.5	28.5	28.5	79	22.8	2	6	248	0.00	30.267 
10:40	28.7	28.7	28.7	79	23.0	1	4	248	0.00	30.267 
10:45	29.0	29.0	29.0	78	23.0	1	3	270	0.00	30.265 
10:50	29.1	29.1	29.1	78	23.1	1	3	270	0.00	30.265 
10:55	29.3	29.3	29.3	77	23.0	1	5	270	0.00	30.265 
11:00	29.4	29.4	29.4	77	23.1	1	3	248	0.00	30.258 
11:05	29.7	29.7	29.7	77	23.4	0	2	248	0.00	30.258 
11:10	30.0	30.0	30.0	76	23.4	1	5	270	0.00	30.258 
11:15	30.1	30.1	30.1	75	23.2	1	2	270	0.00	30.261 
11:20	30.3	30.3	30.3	74	23.0	1	4	270	0.00	30.261 
11:25	30.6	30.6	30.6	74	23.3	0	2	270	0.00	30.261 
11:30	30.7	30.7	30.7	73	23.1	1	3	270	0.00	30.254 
11:35	30.7	30.7	30.7	73	23.1	1	4	248	0.00	30.254 
11:40	31.0	31.0	31.0	73	23.4	1	3	248	0.00	30.254 
11:45	31.0	31.0	31.0	72	23.1	2	4	248	0.00	30.249 
11:50	31.2	31.2	31.2	72	23.2	1	3	248	0.00	30.249 
11:55	31.2	31.2	31.2	71	22.9	2	6	248	0.00	30.249 
12:00	31.3	31.3	31.3	72	23.3	1	4	248	0.00	30.248 
12:05	31.5	31.5	31.5	72	23.5	2	5	248	0.00	30.248 
12:10	31.6	31.6	31.6	71	23.3	1	5	270	0.00	30.248 
12:15	31.8	31.8	31.8	71	23.5	2	5	248	0.00	30.248 
12:20	31.6	31.6	31.6	70	23.0	2	5	248	0.00	30.248 
12:25	31.8	31.8	31.8	70	23.2	2	4	248	0.00	30.248 
12:30	31.9	31.9	31.9	70	23.2	2	4	248	0.00	30.235 
12:35	32.4	32.4	32.4	71	24.1	1	5	248	0.00	30.235 
12:40	32.5	32.5	32.5	69	23.5	1	5	270	0.00	30.235 
12:45	32.7	32.7	32.7	69	23.7	1	5	270	0.00	30.231 
12:50	32.9	32.9	32.9	70	24.2	1	5	248	0.00	30.231 
12:55	33.1	33.1	33.1	69	24.1	2	7	248	0.00	30.231 
13:00	33.1	33.1	33.1	69	24.1	1	7	225	0.00	30.227 
13:05	33.1	33.1	33.1	69	24.1	2	7	225	0.00	30.227 
13:10	33.1	33.1	33.1	69	24.1	2	5	248	0.00	30.227 
13:15	33.1	33.1	33.1	68	23.7	2	7	248	0.00	30.219 
13:20	33.2	33.2	33.2	69	24.2	2	5	248	0.00	30.219 
13:25	33.4	33.4	33.4	69	24.3	1	4	248	0.00	30.219 
13:30	33.5	33.5	33.5	69	24.4	1	5	248	0.00	30.222 
13:35	33.7	33.7	33.7	69	24.6	1	7	248	0.00	30.222 
13:40	33.8	33.8	33.8	70	25.1	2	6	270	0.00	30.222 
13:45	33.8	33.8	33.8	69	24.7	1	3	248	0.00	30.215 
13:50	33.8	33.8	33.8	69	24.7	1	5	248	0.00	30.215 
13:55	33.7	33.7	33.7	68	24.3	2	5	248	0.00	30.215 
14:00	33.7	33.7	33.7	68	24.3	2	6	248	0.00	30.215 
14:05	33.7	33.7	33.7	68	24.3	3	7	248	0.00	30.215 
14:10	34.0	34.0	34.0	68	24.6	2	4	248	0.00	30.215 
14:15	34.3	34.3	34.3	68	24.9	2	5	248	0.00	30.214 
14:20	34.3	34.3	34.3	67	24.5	3	9	248	0.00	30.214 
14:25	34.3	34.3	34.3	67	24.5	2	5	248	0.00	30.214 
14:30	34.3	34.3	34.3	68	24.9	2	9	225	0.00	30.216 
14:35	34.3	34.3	34.3	68	24.9	2	6	248	0.00	30.216 
14:40	34.4	34.4	34.4	68	24.9	2	6	248	0.00	30.216 
14:45	34.6	34.6	34.6	68	25.1	2	4	248	0.00	30.215 
14:50	34.7	34.7	34.7	68	25.2	2	5	248	0.00	30.215 
14:55	34.7	34.7	34.7	67	24.9	2	5	248	0.00	30.215 
15:00	34.6	34.6	34.6	66	24.4	2	7	248	0.00	30.215 
15:05	34.4	34.4	34.4	67	24.6	2	4	248	0.00	30.215 
15:10	34.4	34.4	34.4	67	24.6	2	6	248	0.00	30.215 
15:15	34.4	34.4	34.4	67	24.6	1	5	248	0.00	30.219 
15:20	34.4	34.4	34.4	68	24.9	2	4	248	0.00	30.219 
15:25	34.6	34.6	34.6	68	25.1	2	5	248	0.00	30.219 
15:30	34.7	34.7	34.7	68	25.2	1	4	248	0.00	30.216 
15:35	34.9	34.9	34.9	68	25.4	1	3	248	0.00	30.216 
15:40	34.9	34.9	34.9	68	25.4	1	3	270	0.00	30.216 
15:45	34.9	34.9	34.9	68	25.4	1	2	270	0.00	30.214 
15:50	34.7	34.7	34.7	67	24.9	2	5	248	0.00	30.214 
15:55	34.6	34.6	34.6	67	24.8	2	5	248	0.00	30.214 
16:00	34.4	34.4	34.4	68	24.9	1	6	248	0.00	30.215 
16:05	34.4	34.4	34.4	68	24.9	1	4	248	0.00	30.215 
16:10	34.3	34.3	34.3	69	25.2	1	4	248	0.00	30.215 
16:15	34.3	34.3	34.3	69	25.2	1	5	248	0.00	30.220 
16:20	34.1	34.1	34.1	69	25.0	1	4	248	0.00	30.220 
16:25	34.1	34.1	34.1	69	25.0	2	5	248	0.00	30.220 
16:30	34.0	34.0	34.0	69	24.9	0	2	248	0.00	30.216 
16:35	33.8	33.8	33.8	70	25.1	0	3	248	0.00	30.216 
16:40	33.7	33.7	33.7	70	25.0	0	4	248	0.00	30.216 
16:45	33.5	33.5	33.5	71	25.1	0	2	248	0.00	30.218 
16:50	33.4	33.4	33.4	72	25.4	0	3	248	0.00	30.218 
16:55	33.4	33.4	33.4	72	25.4	1	4	248	0.00	30.218 
17:00	33.2	33.2	33.2	73	25.5	1	3	248	0.00	30.220 
17:05	33.1	33.1	33.1	73	25.4	0	4	248	0.00	30.220 
17:10	32.9	32.9	32.9	73	25.2	0	2	248	0.00	30.220 
17:15	32.9	32.9	32.9	73	25.2	0	3	248	0.00	30.224 
17:20	32.8	32.8	32.8	73	25.1	0	1	248	0.00	30.224 
17:25	32.7	32.7	32.7	74	25.3	0	2	248	0.00	30.224 
17:30	32.5	32.5	32.5	74	25.2	0	2	248	0.00	30.221 
17:35	32.5	32.5	32.5	74	25.2	0	1	248	0.00	30.221 
17:40	32.5	32.5	32.5	75	25.5	0	0	---	0.00	30.221 
17:45	32.4	32.4	32.4	75	25.4	0	1	248	0.00	30.218 
17:50	32.4	32.4	32.4	75	25.4	0	0	---	0.00	30.218 
17:55	32.2	32.2	32.2	75	25.2	0	1	248	0.00	30.218 
18:00	32.2	32.2	32.2	75	25.2	0	2	248	0.00	30.218 
18:05	32.2	32.2	32.2	75	25.2	0	0	---	0.00	30.218 
18:10	32.2	32.2	32.2	75	25.2	0	1	248	0.00	30.218 
18:15	32.2	32.2	32.2	75	25.2	0	0	---	0.00	30.221 
18:20	32.2	32.2	32.2	75	25.2	0	1	248	0.00	30.221 
18:25	32.1	32.1	32.1	75	25.1	0	0	---	0.00	30.221 
18:30	32.1	32.1	32.1	75	25.1	0	0	---	0.00	30.221 
18:35	31.9	31.9	31.9	76	25.2	0	0	---	0.00	30.221 
18:40	31.8	31.8	31.8	76	25.1	0	0	---	0.00	30.221 
18:45	31.8	31.8	31.8	76	25.1	0	0	---	0.00	30.219 
18:50	31.6	31.6	31.6	77	25.2	0	0	---	0.00	30.219 
18:55	31.6	31.6	31.6	77	25.2	0	0	---	0.00	30.219 
19:00	31.6	31.6	31.6	77	25.2	0	1	248	0.00	30.228 
19:05	31.8	31.8	31.8	77	25.4	0	1	248	0.00	30.228 
19:10	31.8	31.8	31.8	77	25.4	0	1	248	0.00	30.228 
19:15	31.8	31.8	31.8	77	25.4	0	0	---	0.00	30.235 
19:20	31.8	31.8	31.8	77	25.4	0	1	248	0.00	30.235 
19:25	31.8	31.8	31.8	77	25.4	0	1	248	0.00	30.235 
19:30	31.8	31.8	31.8	77	25.4	0	1	248	0.00	30.233 
19:35	31.8	31.8	31.8	77	25.4	0	0	---	0.00	30.233 
19:40	31.8	31.8	31.8	77	25.4	0	1	248	0.00	30.233 
19:45	31.8	31.8	31.8	77	25.4	0	1	248	0.00	30.233 
19:50	31.8	31.8	31.8	77	25.4	0	1	248	0.00	30.233 
19:55	31.8	31.8	31.8	77	25.4	0	0	---	0.00	30.233 
20:00	31.8	31.8	31.8	77	25.4	0	0	---	0.00	30.235 
20:05	31.8	31.8	31.8	77	25.4	0	0	---	0.00	30.235 
20:10	31.8	31.8	31.8	77	25.4	0	0	---	0.00	30.235 
20:15	31.8	31.8	31.8	77	25.4	0	0	---	0.00	30.230 
20:20	31.8	31.8	31.8	77	25.4	0	1	248	0.00	30.230 
20:25	31.8	31.8	31.8	78	25.7	0	2	248	0.00	30.230 
20:30	31.8	31.8	31.8	78	25.7	0	0	---	0.00	30.225 
20:35	31.8	31.8	31.8	78	25.7	0	1	248	0.00	30.225 
20:40	31.8	31.8	31.8	78	25.7	0	0	---	0.00	30.225 
20:45	31.8	31.8	31.8	78	25.7	0	2	248	0.00	30.221 
20:50	31.9	31.9	31.9	79	26.1	0	1	248	0.00	30.221 
20:55	31.9	31.9	31.9	79	26.1	0	1	248	0.00	30.221 
21:00	31.9	31.9	31.9	79	26.1	0	1	248	0.00	30.219 
21:05	32.1	32.1	32.1	79	26.3	0	1	248	0.00	30.219 
21:10	32.1	32.1	32.1	79	26.3	0	1	248	0.00	30.219 
21:15	32.1	32.1	32.1	79	26.3	0	0	---	0.00	30.215 
21:20	32.1	32.1	32.1	79	26.3	0	0	---	0.00	30.215 
21:25	32.1	32.1	32.1	79	26.3	0	0	---	0.00	30.215 
21:30	32.1	32.1	32.1	79	26.3	0	0	---	0.00	30.216 
21:35	32.1	32.1	32.1	79	26.3	0	1	248	0.00	30.216 
21:40	32.1	32.1	32.1	79	26.3	0	0	---	0.00	30.216 
21:45	32.1	32.1	32.1	80	26.6	0	0	---	0.00	30.218 
21:50	32.1	32.1	32.1	80	26.6	0	0	---	0.00	30.218 
21:55	32.1	32.1	32.1	80	26.6	0	0	---	0.00	30.218 
22:00	32.1	32.1	32.1	80	26.6	0	0	---	0.00	30.220 
22:05	32.1	32.1	32.1	80	26.6	0	0	---	0.00	30.220 
22:10	32.1	32.1	32.1	80	26.6	0	0	---	0.00	30.220 
22:15	32.1	32.1	32.1	80	26.6	0	1	248	0.00	30.219 
22:20	32.1	32.1	32.1	80	26.6	0	0	---	0.00	30.219 
22:25	32.1	32.1	32.1	81	26.9	0	0	---	0.00	30.219 
22:30	31.9	31.9	31.9	81	26.7	0	1	248	0.00	30.218 
22:35	32.1	32.1	32.1	81	26.9	0	1	248	0.00	30.218 
22:40	32.2	32.2	32.2	81	27.0	0	1	248	0.00	30.218 
22:45	32.2	32.2	32.2	81	27.0	0	0	---	0.00	30.220 
22:50	32.4	32.4	32.4	80	26.9	0	2	248	0.00	30.220 
22:55	32.4	32.4	32.4	80	26.9	0	1	248	0.00	30.220 
23:00	32.4	32.4	32.4	80	26.9	0	1	248	0.00	30.218 
23:05	32.4	32.4	32.4	80	26.9	0	1	248	0.00	30.218 
23:10	32.4	32.4	32.4	80	26.9	0	0	---	0.00	30.218 
23:15	32.4	32.4	32.4	80	26.9	0	0	---	0.00	30.217 
23:20	32.4	32.4	32.4	80	26.9	0	0	---	0.00	30.217 
23:25	32.4	32.4	32.4	80	26.9	0	0	---	0.00	30.217 
23:30	32.2	32.2	32.2	81	27.0	0	0	---	0.00	30.217 
23:35	32.2	32.2	32.2	81	27.0	0	0	---	0.00	30.217 
23:40	32.2	32.2	32.2	81	27.0	0	0	---	0.00	30.217 
23:45	32.4	32.4	32.4	81	27.2	0	1	248	0.00	30.218 
23:50	32.4	32.4	32.4	81	27.2	0	0	---	0.00	30.218 
23:55	32.4	32.4	32.4	81	27.2	0	0	---	0.00	30.218 

CoCoRaHS
IN-AL-39
A2 Web Hosting
Creative Commons License
GoDaddy
search engine by freefind advanced

loaded 2018-11-17 05:43:15 • last modified 2010-11-18 10:43:29
Privacy PolicyDisclaimer
• wx.awcolley.com is powered by PmWiki v.2002016 •
• all content (unless otherwise noted) © 2018 A W Colley